createdAt,value
2018-02-10T00:00:28.037Z,76.67
2018-02-10T00:02:53.940Z,75.95
2018-02-10T00:05:19.869Z,75.76
2018-02-10T00:07:46.679Z,75.91
2018-02-10T00:10:12.628Z,76.38
2018-02-10T00:12:41.813Z,76.75
2018-02-10T00:15:07.730Z,76.64
2018-02-10T00:17:37.390Z,76.60
2018-02-10T00:20:03.294Z,76.61
2018-02-10T00:22:33.377Z,76.34
2018-02-10T00:24:59.320Z,75.97
2018-02-10T00:27:25.576Z,76.08
2018-02-10T00:29:51.494Z,76.10
2018-02-10T00:32:21.161Z,76.81
2018-02-10T00:34:47.129Z,76.95
2018-02-10T00:37:13.042Z,76.69
2018-02-10T00:39:38.954Z,76.78
2018-02-10T00:42:04.892Z,77.28
2018-02-10T00:44:32.447Z,77.02
2018-02-10T00:46:58.371Z,77.22
2018-02-10T00:49:27.667Z,76.91
2018-02-10T00:51:53.591Z,77.18
2018-02-10T00:54:23.060Z,77.54
2018-02-10T00:56:48.960Z,77.70
2018-02-10T00:59:17.962Z,77.76
2018-02-10T01:01:43.916Z,77.73
2018-02-10T01:04:11.077Z,77.63
2018-02-10T01:06:37.037Z,77.48
2018-02-10T01:09:05.564Z,77.37
2018-02-10T01:11:31.488Z,77.45
2018-02-10T01:13:57.395Z,77.39
2018-02-10T01:16:23.373Z,77.01
2018-02-10T01:18:49.318Z,76.59
2018-02-10T01:21:18.482Z,76.88
2018-02-10T01:23:44.430Z,77.33
2018-02-10T01:26:13.571Z,77.83
2018-02-10T01:28:39.485Z,77.90
2018-02-10T01:31:07.345Z,77.78
2018-02-10T01:33:33.257Z,77.77
2018-02-10T01:36:02.215Z,77.41
2018-02-10T01:38:28.167Z,77.13
2018-02-10T01:40:57.121Z,77.00
2018-02-10T01:43:23.087Z,77.29
2018-02-10T01:45:52.221Z,77.13
2018-02-10T01:48:18.160Z,77.19
2018-02-10T01:50:44.066Z,77.19
2018-02-10T01:53:09.972Z,77.08
2018-02-10T01:55:35.892Z,76.38
2018-02-10T01:58:02.893Z,76.80
2018-02-10T02:00:28.822Z,77.27
2018-02-10T02:02:58.320Z,77.23
2018-02-10T02:05:24.214Z,77.48
2018-02-10T02:07:52.175Z,77.94
2018-02-10T02:10:18.098Z,78.23
2018-02-10T02:12:47.572Z,78.09
2018-02-10T02:15:13.534Z,77.99
2018-02-10T02:17:43.324Z,78.12
2018-02-10T02:20:09.264Z,78.27
2018-02-10T02:22:36.391Z,78.09
2018-02-10T02:25:02.339Z,78.21
2018-02-10T02:27:28.289Z,77.93
2018-02-10T02:29:54.199Z,77.50
2018-02-10T02:32:20.090Z,77.40
2018-02-10T02:34:49.763Z,78.34
2018-02-10T02:37:15.700Z,78.04
2018-02-10T02:39:44.845Z,77.84
2018-02-10T02:42:10.786Z,78.04
2018-02-10T02:44:38.121Z,78.21
2018-02-10T02:47:04.039Z,78.32
2018-02-10T02:49:33.267Z,78.45
2018-02-10T02:51:59.219Z,78.46
2018-02-10T02:54:28.399Z,78.29
2018-02-10T02:56:54.324Z,78.25
2018-02-10T02:59:23.371Z,78.13
2018-02-10T03:01:49.296Z,77.81
2018-02-10T03:04:15.203Z,77.25
2018-02-10T03:06:41.139Z,76.87
2018-02-10T03:09:07.071Z,76.42
2018-02-10T03:11:33.226Z,75.82
2018-02-10T03:13:59.216Z,75.36
2018-02-10T03:16:27.917Z,75.92
2018-02-10T03:18:53.835Z,76.04
2018-02-10T03:21:23.530Z,76.04
2018-02-10T03:23:49.463Z,76.41
2018-02-10T03:26:19.243Z,76.41
2018-02-10T03:28:45.159Z,76.23
2018-02-10T03:31:12.271Z,76.40
2018-02-10T03:33:38.220Z,76.66
2018-02-10T03:36:07.231Z,76.68
2018-02-10T03:38:33.180Z,76.88
2018-02-10T03:40:59.115Z,77.30
2018-02-10T03:43:25.063Z,78.02
2018-02-10T03:45:51.017Z,78.00
2018-02-10T03:48:20.496Z,77.58
2018-02-10T03:50:47.274Z,77.68
2018-02-10T03:53:13.259Z,77.77
2018-02-10T03:55:39.231Z,77.85
2018-02-10T03:58:08.099Z,77.73
2018-02-10T04:00:34.004Z,77.67
2018-02-10T04:03:03.384Z,77.49
2018-02-10T04:05:29.325Z,77.85
2018-02-10T04:07:58.802Z,77.73
2018-02-10T04:10:24.716Z,77.91
2018-02-10T04:12:53.846Z,77.61
2018-02-10T04:15:20.312Z,77.18
2018-02-10T04:17:46.231Z,76.69
2018-02-10T04:20:12.145Z,76.85
2018-02-10T04:22:38.052Z,76.45
2018-02-10T04:25:04.028Z,77.10
2018-02-10T04:27:29.926Z,77.77
2018-02-10T04:29:58.714Z,78.02
2018-02-10T04:32:24.662Z,77.76
2018-02-10T04:34:53.416Z,77.93
2018-02-10T04:37:19.364Z,77.85
2018-02-10T04:39:49.137Z,77.64
2018-02-10T04:42:15.873Z,77.12
2018-02-10T04:44:43.334Z,76.84
2018-02-10T04:47:09.260Z,76.63
2018-02-10T04:49:38.258Z,76.52
2018-02-10T04:52:04.197Z,76.53
2018-02-10T04:54:30.111Z,76.59
2018-02-10T04:56:56.047Z,76.90
2018-02-10T04:59:21.966Z,77.24
2018-02-10T05:01:49.831Z,77.70
2018-02-10T05:04:15.738Z,77.90
2018-02-10T05:06:44.701Z,77.96
2018-02-10T05:09:10.653Z,77.83
2018-02-10T05:11:40.464Z,77.81
2018-02-10T05:14:06.385Z,78.24
2018-02-10T05:16:33.545Z,78.50
2018-02-10T05:18:59.468Z,78.69
2018-02-10T05:21:28.232Z,78.56
2018-02-10T05:23:54.160Z,78.48
2018-02-10T05:26:23.724Z,78.50
2018-02-10T05:28:49.666Z,78.71
2018-02-10T05:31:15.590Z,78.60
2018-02-10T05:33:41.515Z,78.42
2018-02-10T05:36:07.431Z,77.83
2018-02-10T05:38:34.615Z,77.32
2018-02-10T05:41:00.550Z,77.48
2018-02-10T05:43:29.359Z,77.25
2018-02-10T05:45:55.302Z,77.45
2018-02-10T05:48:24.380Z,77.64
2018-02-10T05:50:50.295Z,78.16
2018-02-10T05:53:19.439Z,78.12
2018-02-10T05:55:45.380Z,77.75
2018-02-10T05:58:14.688Z,77.62
2018-02-10T06:00:40.629Z,77.53
2018-02-10T06:03:09.682Z,77.56
2018-02-10T06:05:35.598Z,77.12
2018-02-10T06:08:01.520Z,76.77
2018-02-10T06:10:27.446Z,76.44
2018-02-10T06:12:53.355Z,75.70
2018-02-10T06:15:19.917Z,75.35
2018-02-10T06:17:45.851Z,75.93
2018-02-10T06:20:15.285Z,75.96
2018-02-10T06:22:41.213Z,76.08
2018-02-10T06:25:10.259Z,76.51
2018-02-10T06:27:36.209Z,77.02
2018-02-10T06:30:05.283Z,76.79
2018-02-10T06:32:31.252Z,76.67
2018-02-10T06:35:00.328Z,77.13
2018-02-10T06:37:26.256Z,77.87
2018-02-10T06:39:53.565Z,77.70
2018-02-10T06:42:19.474Z,78.11
2018-02-10T06:44:45.384Z,77.83
2018-02-10T06:47:11.317Z,78.02
2018-02-10T06:49:37.221Z,77.92
2018-02-10T06:52:06.748Z,77.61
2018-02-10T06:54:32.672Z,77.10
2018-02-10T06:57:00.311Z,77.06
2018-02-10T06:59:26.256Z,77.24
2018-02-10T07:01:55.382Z,77.83
2018-02-10T07:04:21.302Z,78.46
2018-02-10T07:06:50.586Z,78.17
2018-02-10T07:09:16.525Z,78.32
2018-02-10T07:11:44.156Z,77.75
2018-02-10T07:14:10.087Z,77.74
2018-02-10T07:16:38.989Z,77.77
2018-02-10T07:19:04.919Z,77.50
2018-02-10T07:21:30.860Z,77.92
2018-02-10T07:23:57.325Z,78.52
2018-02-10T07:26:23.275Z,78.15
2018-02-10T07:28:50.534Z,77.74
2018-02-10T07:31:16.452Z,78.56
2018-02-10T07:33:45.641Z,79.26
2018-02-10T07:36:11.549Z,80.12
2018-02-10T07:38:40.765Z,80.24
2018-02-10T07:41:06.721Z,80.65
2018-02-10T07:43:36.045Z,81.02
2018-02-10T07:46:01.998Z,80.68
2018-02-10T07:48:29.235Z,80.62
2018-02-10T07:50:55.163Z,80.95
2018-02-10T07:53:23.984Z,80.71
2018-02-10T07:55:49.937Z,80.54
2018-02-10T07:58:15.889Z,81.27
2018-02-10T08:00:42.105Z,81.41
2018-02-10T08:03:08.055Z,81.86
2018-02-10T08:05:35.688Z,82.31
2018-02-10T08:08:01.604Z,82.50
2018-02-10T08:10:31.448Z,82.24
2018-02-10T08:12:57.372Z,82.15
2018-02-10T08:15:26.583Z,82.32
2018-02-10T08:17:52.497Z,81.84
2018-02-10T08:20:21.606Z,82.19
2018-02-10T08:22:47.563Z,81.62
2018-02-10T08:25:16.782Z,82.10
2018-02-10T08:27:42.716Z,82.23
2018-02-10T08:30:09.827Z,82.27
2018-02-10T08:32:35.784Z,82.19
2018-02-10T08:35:01.687Z,82.67
2018-02-10T08:37:27.613Z,82.57
2018-02-10T08:39:53.508Z,82.04
2018-02-10T08:42:21.195Z,81.90
2018-02-10T08:44:47.153Z,81.40
2018-02-10T08:47:16.157Z,80.91
2018-02-10T08:49:42.092Z,81.07
2018-02-10T08:52:11.284Z,80.69
2018-02-10T08:54:37.225Z,80.48
2018-02-10T08:57:06.843Z,79.86
2018-02-10T08:59:32.765Z,80.60
2018-02-10T09:02:00.113Z,80.32
2018-02-10T09:04:26.080Z,80.53
2018-02-10T09:06:55.370Z,80.73
2018-02-10T09:09:21.286Z,80.32
2018-02-10T09:11:47.259Z,79.98
2018-02-10T09:14:13.189Z,80.14
2018-02-10T09:16:39.167Z,80.09
2018-02-10T09:19:06.569Z,79.66
2018-02-10T09:21:32.540Z,79.91
2018-02-10T09:24:01.661Z,79.65
2018-02-10T09:26:27.590Z,79.42
2018-02-10T09:28:57.469Z,79.42
2018-02-10T09:31:23.422Z,78.84
2018-02-10T09:33:50.536Z,77.94
2018-02-10T09:36:16.470Z,78.20
2018-02-10T09:38:46.197Z,77.29
2018-02-10T09:41:12.108Z,76.12
2018-02-10T09:43:41.654Z,75.01
2018-02-10T09:46:07.567Z,75.27
2018-02-10T09:48:33.488Z,74.70
2018-02-10T09:50:59.414Z,74.51
2018-02-10T09:53:41.307Z,73.83
2018-02-10T09:56:07.245Z,74.44
2018-02-10T09:58:33.176Z,75.03
2018-02-10T10:00:59.095Z,75.31
2018-02-10T10:03:25.081Z,75.66
2018-02-10T10:05:50.991Z,76.08
2018-02-10T10:08:28.312Z,76.82
2018-02-10T10:10:54.248Z,76.18
2018-02-10T10:13:20.158Z,76.07
2018-02-10T10:15:46.099Z,76.10
2018-02-10T10:18:12.054Z,75.00
2018-02-10T10:20:37.990Z,75.07
2018-02-10T10:23:03.934Z,75.36
2018-02-10T10:25:29.858Z,75.09
2018-02-10T10:27:55.792Z,75.12
2018-02-10T10:30:21.708Z,74.10
2018-02-10T10:32:47.624Z,73.01
2018-02-10T10:35:13.547Z,73.17
2018-02-10T10:37:39.471Z,73.51
2018-02-10T10:40:05.400Z,73.11
2018-02-10T10:42:31.338Z,71.92
2018-02-10T10:44:57.233Z,71.86
2018-02-10T10:47:23.131Z,71.25
2018-02-10T10:49:49.060Z,71.65
2018-02-10T10:52:16.721Z,72.19
2018-02-10T10:54:42.669Z,71.88
2018-02-10T10:57:11.724Z,71.84
2018-02-10T10:59:37.643Z,71.71
2018-02-10T11:02:03.590Z,71.86
2018-02-10T11:04:29.502Z,71.69
2018-02-10T11:06:55.439Z,71.81
2018-02-10T11:09:22.332Z,71.71
2018-02-10T11:11:48.290Z,72.00
2018-02-10T11:14:17.640Z,71.96
2018-02-10T11:16:43.555Z,71.56
2018-02-10T11:19:13.517Z,71.59
2018-02-10T11:21:39.435Z,72.19
2018-02-10T11:24:07.240Z,71.71
2018-02-10T11:26:33.155Z,71.65
2018-02-10T11:29:02.337Z,70.67
2018-02-10T11:31:28.265Z,70.71
2018-02-10T11:33:57.554Z,70.82
2018-02-10T11:36:23.470Z,70.41
2018-02-10T11:38:49.420Z,70.82
2018-02-10T11:41:15.371Z,69.95
2018-02-10T11:43:41.284Z,70.30
2018-02-10T11:46:07.650Z,70.21
2018-02-10T11:48:33.556Z,70.31
2018-02-10T11:51:02.409Z,70.38
2018-02-10T11:53:28.348Z,70.42
2018-02-10T11:55:57.149Z,70.19
2018-02-10T11:58:23.092Z,70.14
2018-02-10T12:00:52.074Z,69.45
2018-02-10T12:03:17.996Z,68.78
2018-02-10T12:05:47.328Z,69.63
2018-02-10T12:08:13.262Z,69.74
2018-02-10T12:10:42.680Z,69.06
2018-02-10T12:13:08.570Z,68.14
2018-02-10T12:15:34.488Z,69.09
2018-02-10T12:18:00.426Z,68.11
2018-02-10T12:20:26.377Z,67.64
2018-02-10T12:22:53.634Z,67.68
2018-02-10T12:25:19.577Z,66.86
2018-02-10T12:27:48.772Z,66.97
2018-02-10T12:30:14.721Z,66.90
2018-02-10T12:32:43.770Z,66.04
2018-02-10T12:35:09.715Z,67.19
2018-02-10T12:37:37.168Z,66.18
2018-02-10T12:40:03.133Z,65.81
2018-02-10T12:42:31.901Z,65.32
2018-02-10T12:44:57.808Z,65.04
2018-02-10T12:47:27.285Z,65.24
2018-02-10T12:49:53.229Z,64.98
2018-02-10T12:52:19.152Z,65.59
2018-02-10T12:54:45.068Z,65.80
2018-02-10T12:57:10.996Z,66.97
2018-02-10T12:59:38.264Z,66.72
2018-02-10T13:02:04.208Z,67.23
2018-02-10T13:04:33.128Z,67.52
2018-02-10T13:06:59.073Z,66.98
2018-02-10T13:09:28.205Z,67.77
2018-02-10T13:11:54.112Z,68.25
2018-02-10T13:14:23.383Z,68.44
2018-02-10T13:16:49.300Z,69.23
2018-02-10T13:19:18.474Z,69.14
2018-02-10T13:21:44.397Z,69.06
2018-02-10T13:24:13.586Z,69.59
2018-02-10T13:26:39.532Z,70.41
2018-02-10T13:29:05.485Z,70.16
2018-02-10T13:31:31.435Z,69.96
2018-02-10T13:33:57.383Z,70.60
2018-02-10T13:36:23.509Z,71.03
2018-02-10T13:38:49.435Z,70.66
2018-02-10T13:41:18.387Z,70.57
2018-02-10T13:43:44.292Z,70.79
2018-02-10T13:46:13.068Z,71.02
2018-02-10T13:48:39.021Z,70.72
2018-02-10T13:51:08.287Z,71.50
2018-02-10T13:53:34.211Z,71.09
2018-02-10T13:56:03.309Z,72.24
2018-02-10T13:58:29.222Z,72.75
2018-02-10T14:00:58.705Z,72.78
2018-02-10T14:03:24.660Z,72.50
2018-02-10T14:05:50.566Z,72.59
2018-02-10T14:08:16.504Z,72.82
2018-02-10T14:10:42.432Z,73.41
2018-02-10T14:13:09.701Z,73.13
2018-02-10T14:15:35.627Z,73.17
2018-02-10T14:18:03.510Z,72.62
2018-02-10T14:20:29.422Z,71.58
2018-02-10T14:22:58.331Z,71.29
2018-02-10T14:25:24.267Z,71.62
2018-02-10T14:27:53.524Z,71.96
2018-02-10T14:30:19.486Z,72.31
2018-02-10T14:32:49.012Z,72.57
2018-02-10T14:35:14.938Z,72.34
2018-02-10T14:37:44.017Z,72.83
2018-02-10T14:40:09.937Z,73.24
2018-02-10T14:42:35.869Z,73.44
2018-02-10T14:45:01.781Z,73.28
2018-02-10T14:47:27.705Z,73.17
2018-02-10T14:49:54.135Z,73.01
2018-02-10T14:52:20.068Z,73.34
2018-02-10T14:54:48.931Z,74.47
2018-02-10T14:57:14.864Z,74.83
2018-02-10T14:59:44.337Z,74.93
2018-02-10T15:02:10.296Z,75.00
2018-02-10T15:04:39.545Z,75.24
2018-02-10T15:07:05.480Z,75.22
2018-02-10T15:09:33.034Z,74.77
2018-02-10T15:11:59.024Z,74.63
2018-02-10T15:14:28.441Z,74.62
2018-02-10T15:16:54.422Z,74.91
2018-02-10T15:19:20.377Z,75.22
2018-02-10T15:21:46.293Z,75.14
2018-02-10T15:24:12.255Z,75.25
2018-02-10T15:26:39.331Z,75.84
2018-02-10T15:29:05.262Z,75.52
2018-02-10T15:31:43.652Z,75.71
2018-02-10T15:37:07.615Z,76.79
2018-02-10T15:39:33.523Z,76.51
2018-02-10T15:41:59.465Z,76.29
2018-02-10T15:44:25.403Z,76.11
2018-02-10T15:46:51.300Z,76.51
2018-02-10T15:49:17.232Z,76.88
2018-02-10T15:51:43.156Z,76.86
2018-02-10T15:54:09.077Z,76.86
2018-02-10T15:56:35.000Z,76.67
2018-02-10T15:59:00.939Z,76.86
2018-02-10T16:01:26.892Z,76.69
2018-02-10T16:03:52.826Z,76.31
2018-02-10T16:06:18.742Z,76.43
2018-02-10T16:08:44.675Z,76.85
2018-02-10T16:11:10.613Z,76.77
2018-02-10T16:13:36.546Z,76.37
2018-02-10T16:16:02.458Z,76.74
2018-02-10T16:18:28.386Z,76.45
2018-02-10T16:20:54.348Z,76.47
2018-02-10T16:23:20.276Z,76.30
2018-02-10T16:25:46.188Z,76.52
2018-02-10T16:28:12.096Z,76.35
2018-02-10T16:30:38.048Z,76.61
2018-02-10T16:33:03.959Z,76.57
2018-02-10T16:35:29.893Z,76.33
2018-02-10T16:37:55.823Z,75.63
2018-02-10T16:40:21.723Z,75.33
2018-02-10T16:42:47.656Z,75.75
2018-02-10T16:45:13.568Z,75.77
2018-02-10T16:47:39.502Z,75.48
2018-02-10T16:50:05.411Z,75.30
2018-02-10T16:52:31.341Z,75.35
2018-02-10T16:54:57.265Z,75.23
2018-02-10T16:57:23.193Z,75.33
2018-02-10T16:59:49.193Z,75.09
2018-02-10T17:02:15.128Z,75.02
2018-02-10T17:04:43.957Z,74.70
2018-02-10T17:07:09.912Z,74.63
2018-02-10T17:09:35.806Z,75.03
2018-02-10T17:12:01.733Z,74.95
2018-02-10T17:14:27.681Z,74.78
2018-02-10T17:16:55.225Z,74.95
2018-02-10T17:19:21.152Z,74.79
2018-02-10T17:21:50.214Z,74.80
2018-02-10T17:24:16.153Z,74.83
2018-02-10T17:26:46.058Z,74.91
2018-02-10T17:29:11.964Z,74.97
2018-02-10T17:31:41.364Z,74.74
2018-02-10T17:34:07.266Z,74.60
2018-02-10T17:36:34.606Z,75.17
2018-02-10T17:39:00.581Z,74.93
2018-02-10T17:41:29.841Z,74.67
2018-02-10T17:43:55.779Z,74.74
2018-02-10T17:46:21.712Z,74.80
2018-02-10T17:48:47.651Z,74.40
2018-02-10T17:51:13.558Z,74.34
2018-02-10T17:53:41.420Z,74.01
2018-02-10T17:56:07.331Z,74.30
2018-02-10T17:58:36.784Z,74.55
2018-02-10T18:01:02.727Z,74.60
2018-02-10T18:03:31.853Z,74.72
2018-02-10T18:05:57.762Z,74.75
2018-02-10T18:08:24.815Z,73.37
2018-02-10T18:10:50.739Z,73.94
2018-02-10T18:13:19.699Z,74.08
2018-02-10T18:15:45.643Z,74.26
2018-02-10T18:18:14.493Z,74.59
2018-02-10T18:20:40.433Z,74.50
2018-02-10T18:23:06.356Z,74.08
2018-02-10T18:25:32.289Z,74.52
2018-02-10T18:27:58.231Z,74.06
2018-02-10T18:30:27.791Z,73.58
2018-02-10T18:32:53.755Z,72.47
2018-02-10T18:35:21.067Z,72.92
2018-02-10T18:37:47.005Z,72.33
2018-02-10T18:40:16.806Z,72.26
2018-02-10T18:42:42.744Z,72.04
2018-02-10T18:45:10.281Z,72.34
2018-02-10T18:47:36.203Z,72.12
2018-02-10T18:50:05.137Z,72.14
2018-02-10T18:52:31.109Z,72.37
2018-02-10T18:55:00.977Z,72.36
2018-02-10T18:57:26.907Z,72.39
2018-02-10T18:59:52.821Z,72.54
2018-02-10T19:02:18.764Z,72.65
2018-02-10T19:04:44.693Z,72.54
2018-02-10T19:07:11.832Z,72.46
2018-02-10T19:09:37.789Z,71.89
2018-02-10T19:12:07.393Z,72.11
2018-02-10T19:14:33.324Z,72.41
2018-02-10T19:17:02.480Z,72.46
2018-02-10T19:19:28.553Z,72.64
2018-02-10T19:21:55.597Z,71.83
2018-02-10T19:24:21.541Z,71.86
2018-02-10T19:26:50.531Z,71.82
2018-02-10T19:29:16.473Z,71.92
2018-02-10T19:31:46.398Z,72.02
2018-02-10T19:34:12.346Z,71.94
2018-02-10T19:36:38.293Z,72.25
2018-02-10T19:39:04.231Z,72.23
2018-02-10T19:41:30.156Z,72.44
2018-02-10T19:43:56.853Z,72.46
2018-02-10T19:46:22.782Z,72.57
2018-02-10T19:48:51.514Z,72.99
2018-02-10T19:51:17.459Z,72.79
2018-02-10T19:53:46.884Z,72.38
2018-02-10T19:56:12.820Z,72.83
2018-02-10T19:58:42.686Z,72.89
2018-02-10T20:01:08.621Z,72.63
2018-02-10T20:03:35.954Z,73.25
2018-02-10T20:06:01.905Z,72.86
2018-02-10T20:08:31.346Z,72.76
2018-02-10T20:10:57.343Z,73.25
2018-02-10T20:13:23.285Z,73.45
2018-02-10T20:15:49.221Z,73.30
2018-02-10T20:18:15.153Z,73.05
2018-02-10T20:20:42.400Z,73.20
2018-02-10T20:23:08.361Z,73.28
2018-02-10T20:25:37.592Z,72.68
2018-02-10T20:28:03.518Z,73.00
2018-02-10T20:30:32.901Z,72.88
2018-02-10T20:32:58.842Z,73.01
2018-02-10T20:35:26.413Z,73.23
2018-02-10T20:37:52.326Z,73.60
2018-02-10T20:40:22.088Z,73.54
2018-02-10T20:42:48.026Z,73.33
2018-02-10T20:45:16.960Z,73.05
2018-02-10T20:47:42.892Z,72.88
2018-02-10T20:50:08.837Z,72.34
2018-02-10T20:52:34.987Z,72.77
2018-02-10T20:55:00.927Z,73.25
2018-02-10T20:57:27.268Z,73.17
2018-02-10T20:59:53.209Z,73.21
2018-02-10T21:02:22.026Z,73.13
2018-02-10T21:04:47.975Z,73.44
2018-02-10T21:07:17.101Z,73.45
2018-02-10T21:09:43.057Z,73.52
2018-02-10T21:12:12.419Z,74.00
2018-02-10T21:14:38.350Z,74.30
2018-02-10T21:17:07.818Z,74.40
2018-02-10T21:19:33.763Z,74.92
2018-02-10T21:22:01.492Z,74.99
2018-02-10T21:24:27.660Z,75.29
2018-02-10T21:26:53.579Z,75.54
2018-02-10T21:29:19.545Z,75.13
2018-02-10T21:31:45.479Z,75.24
2018-02-10T21:34:12.604Z,75.17
2018-02-10T21:36:38.533Z,75.52
2018-02-10T21:39:07.408Z,75.83
2018-02-10T21:41:33.321Z,76.06
2018-02-10T21:44:02.180Z,76.30
2018-02-10T21:46:28.122Z,76.13
2018-02-10T21:48:56.961Z,76.45
2018-02-10T21:51:22.904Z,76.46
2018-02-10T21:53:52.138Z,76.40
2018-02-10T21:56:18.060Z,76.47
2018-02-10T21:58:47.577Z,76.41
2018-02-10T22:01:13.512Z,76.41
2018-02-10T22:03:39.468Z,76.31
2018-02-10T22:06:05.457Z,76.19
2018-02-10T22:08:31.378Z,76.17
2018-02-10T22:10:57.879Z,76.28
2018-02-10T22:13:23.774Z,76.33
2018-02-10T22:15:53.232Z,76.10
2018-02-10T22:18:19.181Z,76.40
2018-02-10T22:20:48.840Z,76.09
2018-02-10T22:23:14.739Z,76.33
2018-02-10T22:25:42.708Z,76.29
2018-02-10T22:28:08.650Z,76.41
2018-02-10T22:30:38.188Z,76.17
2018-02-10T22:33:04.115Z,75.97
2018-02-10T22:35:31.431Z,76.07
2018-02-10T22:37:57.381Z,76.14
2018-02-10T22:40:23.324Z,76.10
2018-02-10T22:42:49.260Z,76.25
2018-02-10T22:45:15.201Z,76.86
2018-02-10T22:47:44.541Z,76.94
2018-02-10T22:50:10.489Z,77.15
2018-02-10T22:52:39.815Z,76.79
2018-02-10T22:55:05.772Z,76.99
2018-02-10T22:57:32.905Z,77.36
2018-02-10T22:59:58.820Z,77.23
2018-02-10T23:02:28.354Z,77.09
2018-02-10T23:04:54.259Z,77.33
2018-02-10T23:07:23.609Z,77.12
2018-02-10T23:09:49.544Z,76.94
2018-02-10T23:12:17.368Z,76.76
2018-02-10T23:14:43.313Z,76.68
2018-02-10T23:17:09.236Z,77.34
2018-02-10T23:19:35.169Z,77.01
2018-02-10T23:22:01.102Z,77.34
2018-02-10T23:24:28.645Z,77.24
2018-02-10T23:26:54.572Z,77.48
2018-02-10T23:29:23.721Z,77.98
2018-02-10T23:31:49.657Z,78.38
2018-02-10T23:34:18.840Z,78.96
2018-02-10T23:36:44.775Z,79.05
2018-02-10T23:39:13.968Z,79.07
2018-02-10T23:41:39.893Z,78.88
2018-02-10T23:44:07.418Z,78.92
2018-02-10T23:46:33.366Z,78.75
2018-02-10T23:49:02.092Z,78.87
2018-02-10T23:51:28.057Z,79.25
2018-02-10T23:53:53.984Z,79.44
2018-02-10T23:56:19.923Z,79.40
2018-02-10T23:58:45.860Z,79.45
